Time;durP1;ratioP1;P1;durP2;ratioP2;P2;SDS_P1;SDS_P2;PMS_P1;PMS_P2;Temp;Humidity;BMP_temperature;BMP_pressure;BME280_temperature;BME280_humidity;BME280_pressure;Samples;Min_cycle;Max_cycle;Signal;HPM_P1;HPM_P2
2022/06/26 00:02:12;;;;;;;3.70;2.70;;;;;;;;;;5071364;28;20460;-67
2022/06/26 00:04:57;;;;;;;3.95;2.58;;;;;;;;;;5057765;28;20060;-68
2022/06/26 00:07:43;;;;;;;4.43;2.65;;;;;;;;;;5072321;28;20384;-67
2022/06/26 00:10:29;;;;;;;3.78;2.78;;;;;;;;;;5071198;28;20666;-66
2022/06/26 00:13:15;;;;;;;6.25;3.00;;;;;;;;;;5072260;28;20040;-70
2022/06/26 00:16:00;;;;;;;4.32;2.45;;;;;;;;;;5068868;28;20111;-66
2022/06/26 00:18:46;;;;;;;4.65;2.75;;;;;;;;;;5071462;28;20036;-68
2022/06/26 00:21:31;;;;;;;6.20;2.80;;;;;;;;;;5058156;28;20409;-67
2022/06/26 00:24:17;;;;;;;7.03;3.17;;;;;;;;;;5070694;28;20020;-68
2022/06/26 00:27:03;;;;;;;4.68;2.63;;;;;;;;;;5069825;28;20125;-68
2022/06/26 00:29:48;;;;;;;7.10;2.80;;;;;;;;;;5066699;28;20032;-70
2022/06/26 00:32:34;;;;;;;4.95;3.05;;;;;;;;;;5070877;28;20502;-66
2022/06/26 00:35:20;;;;;;;4.53;2.55;;;;;;;;;;5070486;28;20029;-66
2022/06/26 00:38:05;;;;;;;4.80;2.75;;;;;;;;;;5072140;28;20121;-65
2022/06/26 00:40:51;;;;;;;5.57;3.33;;;;;;;;;;5070938;28;20091;-65
2022/06/26 00:43:36;;;;;;;5.43;3.35;;;;;;;;;;5060115;28;20037;-66
2022/06/26 00:46:25;;;;;;;6.95;2.88;;;;;;;;;;5072590;28;20034;-67
2022/06/26 00:49:10;;;;;;;4.97;2.40;;;;;;;;;;5074575;28;20375;-67
2022/06/26 00:51:56;;;;;;;4.38;2.85;;;;;;;;;;5075504;28;20466;-66
2022/06/26 00:54:42;;;;;;;5.22;2.80;;;;;;;;;;5075398;28;20036;-66
2022/06/26 00:57:28;;;;;;;2.60;2.30;;;;;;;;;;5073878;28;20075;-66
2022/06/26 01:00:14;;;;;;;6.78;2.70;;;;;;;;;;5074454;28;20162;-66
2022/06/26 01:02:59;;;;;;;4.70;2.70;;;;;;;;;;5074054;28;20044;-64
2022/06/26 01:05:45;;;;;;;4.43;2.72;;;;;;;;;;5059259;28;20060;-71
2022/06/26 01:08:30;;;;;;;4.40;2.53;;;;;;;;;;5075510;28;20467;-68
2022/06/26 01:11:20;;;;;;;4.25;2.30;;;;;;;;;;5059038;28;20035;-68
2022/06/26 01:14:07;;;;;;;3.25;1.90;;;;;;;;;;5060370;28;20491;-68
2022/06/26 01:16:52;;;;;;;2.80;1.83;;;;;;;;;;5059887;28;20086;-66
2022/06/26 01:19:38;;;;;;;3.50;2.38;;;;;;;;;;5061375;28;20024;-68
2022/06/26 01:22:26;;;;;;;1.95;1.52;;;;;;;;;;5073353;28;20062;-68
2022/06/26 01:25:11;;;;;;;3.63;1.75;;;;;;;;;;5073436;28;20063;-70
2022/06/26 01:27:57;;;;;;;1.88;1.77;;;;;;;;;;5073746;28;20037;-71
2022/06/26 01:30:43;;;;;;;1.92;1.63;;;;;;;;;;5074953;28;20033;-71
2022/06/26 01:33:29;;;;;;;5.35;1.52;;;;;;;;;;5067038;28;20411;-71
2022/06/26 01:36:15;;;;;;;7.80;1.80;;;;;;;;;;5073425;28;20028;-70
2022/06/26 01:39:00;;;;;;;1.83;1.60;;;;;;;;;;5074873;28;20060;-70
2022/06/26 01:41:47;;;;;;;3.55;1.80;;;;;;;;;;5070171;28;20111;-64
2022/06/26 01:44:33;;;;;;;3.83;1.80;;;;;;;;;;5072065;28;20048;-68
2022/06/26 01:47:18;;;;;;;2.85;1.90;;;;;;;;;;5060371;28;20036;-68
2022/06/26 01:50:04;;;;;;;3.00;1.95;;;;;;;;;;5059884;28;20078;-67
2022/06/26 01:52:50;;;;;;;3.72;1.70;;;;;;;;;;5075357;28;20098;-66
2022/06/26 01:55:35;;;;;;;2.67;1.60;;;;;;;;;;5072707;28;20048;-67
2022/06/26 01:58:21;;;;;;;3.22;1.80;;;;;;;;;;5074668;28;20111;-66
2022/06/26 02:01:08;;;;;;;2.00;1.65;;;;;;;;;;5073697;28;20032;-63
2022/06/26 02:03:54;;;;;;;4.03;1.60;;;;;;;;;;5073196;28;20040;-63
2022/06/26 02:06:39;;;;;;;4.63;1.88;;;;;;;;;;5074503;28;20379;-63
2022/06/26 02:15:33;;;;;;;2.35;1.88;;;;;;;;;;5073663;28;20115;-62
2022/06/26 02:18:19;;;;;;;2.25;1.73;;;;;;;;;;5074278;28;20032;-65
2022/06/26 02:21:06;;;;;;;3.90;1.70;;;;;;;;;;5072806;28;20379;-70
2022/06/26 02:23:52;;;;;;;4.30;2.00;;;;;;;;;;5072553;28;20032;-66
2022/06/26 02:26:37;;;;;;;3.08;1.70;;;;;;;;;;5057791;28;20029;-65
2022/06/26 02:29:23;;;;;;;2.17;1.77;;;;;;;;;;5062059;28;20021;-65
2022/06/26 02:32:08;;;;;;;3.65;1.80;;;;;;;;;;5072943;28;20056;-66
2022/06/26 02:34:54;;;;;;;4.60;1.83;;;;;;;;;;5067901;28;20136;-66
2022/06/26 02:37:39;;;;;;;2.13;1.50;;;;;;;;;;5091462;28;20024;-68
2022/06/26 02:40:26;;;;;;;3.40;1.70;;;;;;;;;;5084551;28;20028;-67
2022/06/26 02:43:11;;;;;;;2.33;1.73;;;;;;;;;;5093062;28;20043;-68
2022/06/26 02:45:57;;;;;;;2.00;1.80;;;;;;;;;;5075145;28;20029;-67
2022/06/26 02:48:43;;;;;;;3.33;2.00;;;;;;;;;;5073457;28;20035;-67
2022/06/26 02:51:28;;;;;;;2.65;1.60;;;;;;;;;;5072177;28;20107;-67
2022/06/26 02:54:14;;;;;;;2.55;1.70;;;;;;;;;;5089011;28;20039;-68
2022/06/26 02:56:59;;;;;;;2.00;1.80;;;;;;;;;;5085045;28;20097;-66
2022/06/26 02:59:45;;;;;;;2.55;1.70;;;;;;;;;;5088032;28;20032;-65
2022/06/26 03:02:30;;;;;;;4.10;1.90;;;;;;;;;;5068563;28;20029;-65
2022/06/26 03:05:16;;;;;;;2.55;1.92;;;;;;;;;;5090466;28;20103;-64
2022/06/26 03:08:02;;;;;;;3.08;1.52;;;;;;;;;;5088819;28;20146;-66
2022/06/26 03:10:49;;;;;;;3.45;1.90;;;;;;;;;;5072567;28;20039;-65
2022/06/26 03:13:34;;;;;;;2.25;1.67;;;;;;;;;;5065329;28;20491;-67
2022/06/26 03:16:20;;;;;;;2.10;1.90;;;;;;;;;;5093108;28;20028;-63
2022/06/26 03:19:05;;;;;;;4.07;1.80;;;;;;;;;;5065932;28;20036;-63
2022/06/26 03:21:51;;;;;;;3.00;1.58;;;;;;;;;;5076830;28;20391;-64
2022/06/26 03:24:37;;;;;;;4.88;1.95;;;;;;;;;;5085437;28;20020;-63
2022/06/26 03:27:22;;;;;;;3.03;1.75;;;;;;;;;;5069701;28;20028;-63
2022/06/26 03:30:09;;;;;;;3.42;1.90;;;;;;;;;;5086252;28;20031;-63
2022/06/26 03:32:55;;;;;;;2.80;1.60;;;;;;;;;;5084653;28;20032;-65
2022/06/26 03:35:40;;;;;;;3.50;1.80;;;;;;;;;;5093180;28;20020;-64
2022/06/26 03:38:26;;;;;;;2.10;1.50;;;;;;;;;;5092181;28;20032;-66
2022/06/26 03:41:12;;;;;;;2.28;1.73;;;;;;;;;;5067466;28;20032;-65
2022/06/26 03:43:57;;;;;;;2.13;1.65;;;;;;;;;;5081817;28;20081;-65
2022/06/26 03:46:43;;;;;;;3.88;2.00;;;;;;;;;;5080237;28;20024;-65
2022/06/26 03:49:29;;;;;;;4.60;2.00;;;;;;;;;;5082383;28;20402;-65
2022/06/26 03:52:14;;;;;;;7.03;2.10;;;;;;;;;;5089785;28;20383;-66
2022/06/26 03:55:00;;;;;;;4.93;1.98;;;;;;;;;;5076352;28;20031;-68
2022/06/26 03:57:45;;;;;;;2.72;1.75;;;;;;;;;;5070901;28;20020;-69
2022/06/26 04:00:31;;;;;;;3.53;1.73;;;;;;;;;;5076912;28;20111;-67
2022/06/26 04:03:17;;;;;;;2.05;1.60;;;;;;;;;;5091275;28;20115;-67
2022/06/26 04:06:03;;;;;;;5.72;1.67;;;;;;;;;;5089211;28;20085;-67
2022/06/26 04:08:48;;;;;;;2.95;1.92;;;;;;;;;;5088532;28;20085;-64
2022/06/26 04:11:34;;;;;;;2.75;1.70;;;;;;;;;;5069390;28;20042;-66
2022/06/26 04:14:19;;;;;;;4.38;2.00;;;;;;;;;;5089391;28;20024;-70
2022/06/26 04:17:05;;;;;;;3.63;1.92;;;;;;;;;;5090839;28;20039;-70
2022/06/26 04:19:50;;;;;;;4.45;2.00;;;;;;;;;;5068781;28;20074;-70
2022/06/26 04:22:36;;;;;;;3.00;1.80;;;;;;;;;;5057846;28;20033;-71
2022/06/26 04:25:22;;;;;;;4.22;2.10;;;;;;;;;;5081663;28;20027;-70
2022/06/26 04:28:08;;;;;;;4.00;1.90;;;;;;;;;;5081278;28;20474;-68
2022/06/26 04:30:53;;;;;;;4.70;2.10;;;;;;;;;;5073596;28;20149;-71
2022/06/26 04:33:39;;;;;;;3.80;1.80;;;;;;;;;;5071913;28;20027;-71
2022/06/26 04:36:25;;;;;;;2.50;1.80;;;;;;;;;;5096601;28;20028;-70
2022/06/26 04:39:10;;;;;;;4.32;1.90;;;;;;;;;;5087658;28;20487;-73
2022/06/26 04:41:56;;;;;;;2.00;1.65;;;;;;;;;;5092519;28;20085;-71
2022/06/26 04:44:41;;;;;;;5.32;1.92;;;;;;;;;;5096311;28;20057;-70
2022/06/26 04:47:27;;;;;;;4.75;2.20;;;;;;;;;;5096314;28;20038;-72
2022/06/26 04:50:13;;;;;;;3.47;2.10;;;;;;;;;;5092183;28;20431;-65
2022/06/26 04:52:58;;;;;;;2.47;2.10;;;;;;;;;;5094851;28;20035;-65
2022/06/26 04:55:44;;;;;;;3.58;2.00;;;;;;;;;;5092359;28;20023;-66
2022/06/26 04:58:29;;;;;;;2.83;1.83;;;;;;;;;;5092228;28;20884;-66
2022/06/26 05:01:15;;;;;;;2.97;2.10;;;;;;;;;;5070586;28;20093;-66
2022/06/26 05:04:01;;;;;;;3.15;2.03;;;;;;;;;;5094626;28;20479;-65
2022/06/26 05:06:46;;;;;;;2.88;2.17;;;;;;;;;;5086166;28;20029;-65
2022/06/26 05:09:32;;;;;;;3.72;1.95;;;;;;;;;;5078470;28;20063;-62
2022/06/26 05:12:17;;;;;;;2.88;2.20;;;;;;;;;;5069309;28;20545;-64
2022/06/26 05:15:04;;;;;;;3.90;1.88;;;;;;;;;;5094141;28;20081;-62
2022/06/26 05:17:51;;;;;;;3.35;1.77;;;;;;;;;;5079541;28;20334;-61
2022/06/26 05:20:37;;;;;;;2.88;2.00;;;;;;;;;;5083195;28;20029;-62
2022/06/26 05:23:22;;;;;;;3.13;2.20;;;;;;;;;;5086580;28;20430;-64
2022/06/26 05:26:08;;;;;;;4.28;1.80;;;;;;;;;;5072457;28;20059;-62
2022/06/26 05:28:54;;;;;;;2.55;1.85;;;;;;;;;;5069406;28;20027;-64
2022/06/26 05:31:40;;;;;;;3.35;1.92;;;;;;;;;;5094687;28;20471;-63
2022/06/26 05:34:25;;;;;;;2.40;1.80;;;;;;;;;;5082871;28;20482;-65
2022/06/26 05:37:11;;;;;;;2.75;1.90;;;;;;;;;;5095391;28;20028;-65
2022/06/26 05:39:56;;;;;;;4.28;2.20;;;;;;;;;;5078555;28;20533;-66
2022/06/26 05:42:42;;;;;;;4.80;2.17;;;;;;;;;;5095145;28;20064;-67
2022/06/26 05:45:28;;;;;;;3.65;2.28;;;;;;;;;;5094498;28;20459;-65
2022/06/26 05:48:13;;;;;;;4.50;2.15;;;;;;;;;;5089382;28;20475;-66
2022/06/26 05:50:59;;;;;;;2.92;2.03;;;;;;;;;;5076183;28;20108;-66
2022/06/26 05:53:44;;;;;;;2.78;1.70;;;;;;;;;;5082243;28;20371;-65
2022/06/26 05:56:30;;;;;;;3.65;1.60;;;;;;;;;;5070313;28;20039;-66
2022/06/26 05:59:15;;;;;;;2.42;1.95;;;;;;;;;;5094290;28;20483;-66
2022/06/26 06:02:01;;;;;;;3.55;1.67;;;;;;;;;;5092060;28;20562;-71
2022/06/26 06:04:47;;;;;;;3.92;1.95;;;;;;;;;;5071726;28;20024;-66
2022/06/26 06:07:33;;;;;;;3.55;2.20;;;;;;;;;;5089370;28;20040;-66
2022/06/26 06:10:19;;;;;;;5.05;2.38;;;;;;;;;;5086314;28;20505;-66
2022/06/26 06:13:05;;;;;;;2.75;1.90;;;;;;;;;;5067106;28;20466;-66
2022/06/26 06:15:51;;;;;;;1.92;1.70;;;;;;;;;;5093586;28;20031;-64
2022/06/26 06:18:36;;;;;;;3.88;1.90;;;;;;;;;;5072616;28;20043;-65
2022/06/26 06:21:22;;;;;;;3.17;1.48;;;;;;;;;;5073700;28;20043;-68
2022/06/26 06:24:07;;;;;;;4.18;2.30;;;;;;;;;;5076772;28;20039;-69
2022/06/26 06:26:53;;;;;;;2.65;1.65;;;;;;;;;;5093301;28;20036;-68
2022/06/26 06:29:38;;;;;;;1.85;1.33;;;;;;;;;;5094108;28;20051;-69
2022/06/26 06:32:24;;;;;;;2.67;1.30;;;;;;;;;;5090681;28;20086;-67
2022/06/26 06:35:13;;;;;;;1.70;1.20;;;;;;;;;;5076348;28;20025;-67
2022/06/26 06:37:58;;;;;;;1.33;1.08;;;;;;;;;;5083560;28;20017;-67
2022/06/26 06:40:44;;;;;;;2.60;1.23;;;;;;;;;;5066561;28;20020;-68
2022/06/26 06:43:30;;;;;;;1.23;1.10;;;;;;;;;;5077194;28;20033;-68
2022/06/26 06:46:15;;;;;;;1.10;0.80;;;;;;;;;;5093673;28;20091;-67
2022/06/26 06:49:01;;;;;;;1.98;1.13;;;;;;;;;;5090414;28;20039;-67
2022/06/26 06:51:46;;;;;;;1.55;1.10;;;;;;;;;;5092429;28;20035;-70
2022/06/26 06:54:32;;;;;;;0.80;0.77;;;;;;;;;;5066163;28;20017;-65
2022/06/26 06:57:17;;;;;;;1.98;1.10;;;;;;;;;;5062811;28;20031;-67
2022/06/26 07:00:04;;;;;;;2.55;1.30;;;;;;;;;;5078847;28;20383;-67
2022/06/26 07:02:50;;;;;;;1.38;0.98;;;;;;;;;;5061402;28;20076;-68
2022/06/26 07:05:36;;;;;;;1.75;0.90;;;;;;;;;;5088724;28;20035;-68
2022/06/26 07:08:21;;;;;;;1.05;0.95;;;;;;;;;;5087982;28;20073;-68
2022/06/26 07:11:07;;;;;;;1.48;1.25;;;;;;;;;;5093620;28;20036;-67
2022/06/26 07:13:53;;;;;;;2.55;1.20;;;;;;;;;;5069714;28;20044;-65
2022/06/26 07:16:38;;;;;;;1.10;1.05;;;;;;;;;;5069184;28;20463;-65
2022/06/26 07:19:24;;;;;;;1.70;1.38;;;;;;;;;;5078535;28;20119;-65
2022/06/26 07:22:09;;;;;;;2.15;1.20;;;;;;;;;;5057282;28;20042;-64
2022/06/26 07:24:55;;;;;;;1.83;1.38;;;;;;;;;;5089374;28;20378;-65
2022/06/26 07:27:41;;;;;;;2.65;1.25;;;;;;;;;;5093082;28;20032;-65
2022/06/26 07:30:26;;;;;;;1.95;1.20;;;;;;;;;;5092022;28;20103;-66
2022/06/26 07:36:16;;;;;;;1.45;1.35;;;;;;;;;;5092933;28;20071;-71
2022/06/26 07:39:02;;;;;;;2.88;1.10;;;;;;;;;;5092279;28;20414;-71
2022/06/26 07:41:48;;;;;;;1.30;1.13;;;;;;;;;;5089388;28;20039;-70
2022/06/26 07:44:34;;;;;;;2.85;1.48;;;;;;;;;;5092270;28;20062;-71
2022/06/26 07:47:19;;;;;;;4.30;1.60;;;;;;;;;;5092872;28;20486;-71
2022/06/26 07:50:05;;;;;;;1.83;1.00;;;;;;;;;;5073628;28;20059;-64
2022/06/26 07:52:51;;;;;;;2.03;1.23;;;;;;;;;;5059025;28;20028;-70
2022/06/26 07:55:36;;;;;;;6.63;1.40;;;;;;;;;;5088665;28;20027;-67
2022/06/26 07:58:22;;;;;;;1.67;1.25;;;;;;;;;;5092271;28;20466;-66
2022/06/26 08:01:08;;;;;;;2.00;1.42;;;;;;;;;;5092633;28;20033;-64
2022/06/26 08:03:53;;;;;;;1.70;1.00;;;;;;;;;;5091716;28;20439;-64
2022/06/26 08:06:39;;;;;;;3.75;1.30;;;;;;;;;;5072820;28;20028;-66
2022/06/26 08:09:25;;;;;;;1.55;1.33;;;;;;;;;;5092618;28;20031;-72
2022/06/26 08:12:10;;;;;;;1.40;1.20;;;;;;;;;;5082758;28;20468;-62
2022/06/26 08:14:56;;;;;;;1.83;1.17;;;;;;;;;;5068620;28;20073;-63
2022/06/26 08:17:41;;;;;;;2.00;1.20;;;;;;;;;;5088334;28;20034;-63
2022/06/26 08:20:27;;;;;;;2.08;0.98;;;;;;;;;;5071690;28;20479;-63
2022/06/26 08:23:13;;;;;;;1.27;1.00;;;;;;;;;;5086786;28;20024;-61
2022/06/26 08:25:58;;;;;;;2.05;1.23;;;;;;;;;;5074524;28;20028;-63
2022/06/26 08:28:44;;;;;;;2.25;1.50;;;;;;;;;;5092251;28;20024;-71
2022/06/26 08:31:29;;;;;;;2.35;1.45;;;;;;;;;;5078981;28;20545;-65
2022/06/26 08:34:15;;;;;;;3.50;1.50;;;;;;;;;;5078592;28;20391;-66
2022/06/26 08:37:01;;;;;;;2.47;1.60;;;;;;;;;;5075654;28;20028;-66
2022/06/26 08:39:46;;;;;;;1.65;1.10;;;;;;;;;;5083384;28;20427;-66
2022/06/26 08:42:32;;;;;;;1.63;1.00;;;;;;;;;;5066218;28;20036;-67
2022/06/26 08:45:21;;;;;;;2.28;1.30;;;;;;;;;;5092189;28;20047;-67
2022/06/26 08:48:09;;;;;;;2.05;1.30;;;;;;;;;;5091750;28;20060;-67
2022/06/26 08:50:55;;;;;;;1.40;1.17;;;;;;;;;;5079165;28;20475;-66
2022/06/26 08:53:41;;;;;;;1.13;1.02;;;;;;;;;;5091908;28;20028;-66
2022/06/26 08:56:26;;;;;;;2.45;1.42;;;;;;;;;;5091673;28;20111;-67
2022/06/26 08:59:13;;;;;;;1.33;1.00;;;;;;;;;;5086259;28;20030;-67
2022/06/26 09:01:59;;;;;;;1.55;1.30;;;;;;;;;;5085614;28;20119;-66
2022/06/26 09:04:44;;;;;;;4.80;1.40;;;;;;;;;;5081400;28;20013;-66
2022/06/26 09:07:30;;;;;;;1.55;1.30;;;;;;;;;;5073643;28;20111;-66
2022/06/26 09:10:19;;;;;;;1.55;1.30;;;;;;;;;;5091467;28;20413;-67
2022/06/26 09:13:06;;;;;;;1.17;1.08;;;;;;;;;;5065955;28;20036;-67
2022/06/26 09:15:51;;;;;;;1.55;1.20;;;;;;;;;;5091021;28;20032;-68
2022/06/26 09:18:38;;;;;;;2.25;1.35;;;;;;;;;;5088012;28;20024;-66
2022/06/26 09:21:26;;;;;;;2.10;1.17;;;;;;;;;;5085525;28;20028;-68
2022/06/26 09:24:12;;;;;;;1.92;1.00;;;;;;;;;;5092132;28;20413;-62
2022/06/26 09:27:02;;;;;;;3.05;1.35;;;;;;;;;;5094383;28;20520;-66
2022/06/26 09:29:52;;;;;;;1.13;1.02;;;;;;;;;;5090468;28;20027;-68
2022/06/26 09:32:38;;;;;;;1.70;1.10;;;;;;;;;;5089383;28;20028;-67
2022/06/26 09:35:24;;;;;;;1.92;1.38;;;;;;;;;;5079935;28;20077;-67
2022/06/26 09:38:09;;;;;;;1.80;1.17;;;;;;;;;;5087553;28;20454;-67
2022/06/26 09:40:56;;;;;;;1.70;1.10;;;;;;;;;;5071176;28;20471;-66
2022/06/26 09:43:42;;;;;;;1.02;0.90;;;;;;;;;;5094363;28;20467;-63
2022/06/26 09:46:32;;;;;;;1.25;1.13;;;;;;;;;;5089097;28;20031;-63
2022/06/26 09:49:18;;;;;;;1.00;0.90;;;;;;;;;;5091419;28;20027;-63
2022/06/26 09:52:04;;;;;;;2.97;1.10;;;;;;;;;;5094237;28;20136;-63
2022/06/26 09:54:50;;;;;;;2.05;0.82;;;;;;;;;;5090437;28;20031;-64
2022/06/26 09:57:36;;;;;;;2.22;1.05;;;;;;;;;;5079887;28;20028;-63
2022/06/26 10:00:22;;;;;;;1.17;1.08;;;;;;;;;;5079865;28;20020;-73
2022/06/26 10:06:45;;;;;;;1.40;0.90;;;;;;;;;;5066984;28;20032;-71
2022/06/26 10:09:25;;;;;;;2.40;1.05;;;;;;;;;;5095434;28;20035;-71
2022/06/26 10:12:12;;;;;;;1.20;1.02;;;;;;;;;;5084256;28;20063;-72
2022/06/26 10:14:58;;;;;;;1.13;1.00;;;;;;;;;;5077479;28;20053;-72
2022/06/26 10:17:56;;;;;;;1.88;1.00;;;;;;;;;;5093710;28;20066;-68
2022/06/26 10:20:41;;;;;;;2.65;1.08;;;;;;;;;;5082402;28;20029;-65
2022/06/26 10:23:34;;;;;;;2.03;1.17;;;;;;;;;;5088440;28;20024;-66
2022/06/26 10:26:20;;;;;;;2.47;1.10;;;;;;;;;;5087587;28;20028;-66
2022/06/26 10:29:07;;;;;;;2.25;1.10;;;;;;;;;;5071812;28;20046;-64
2022/06/26 10:31:53;;;;;;;1.70;1.00;;;;;;;;;;5093589;28;20417;-66
2022/06/26 10:34:38;;;;;;;1.20;1.10;;;;;;;;;;5083467;28;20034;-67
2022/06/26 10:37:24;;;;;;;1.20;0.95;;;;;;;;;;5092912;28;20072;-65
2022/06/26 10:42:52;;;;;;;1.20;1.10;;;;;;;;;;5092734;28;20032;-64
2022/06/26 10:43:28;;;;;;;3.35;1.00;;;;;;;;;;5086572;28;20082;-63
2022/06/26 10:46:13;;;;;;;2.40;1.20;;;;;;;;;;5073117;28;20107;-63
2022/06/26 10:48:59;;;;;;;1.50;1.38;;;;;;;;;;5070618;28;20028;-62
2022/06/26 10:51:45;;;;;;;2.22;1.30;;;;;;;;;;5093276;28;20391;-63
2022/06/26 10:54:33;;;;;;;2.13;1.10;;;;;;;;;;5084410;28;20465;-65
2022/06/26 10:57:23;;;;;;;1.65;1.27;;;;;;;;;;5092134;28;20078;-66
2022/06/26 11:00:12;;;;;;;1.30;1.08;;;;;;;;;;5092893;28;20082;-68
2022/06/26 11:02:58;;;;;;;2.33;1.27;;;;;;;;;;5063748;28;20120;-67
2022/06/26 11:06:00;;;;;;;1.45;1.33;;;;;;;;;;5089872;28;20504;-67
2022/06/26 11:08:49;;;;;;;1.80;1.20;;;;;;;;;;5092779;28;20090;-67
2022/06/26 11:11:35;;;;;;;1.42;1.30;;;;;;;;;;5093075;28;20030;-67
2022/06/26 11:14:21;;;;;;;2.03;1.17;;;;;;;;;;5076409;28;20102;-66
2022/06/26 11:17:07;;;;;;;3.55;1.30;;;;;;;;;;5093573;28;20028;-63
2022/06/26 11:22:58;;;;;;;0.98;0.95;;;;;;;;;;5084812;28;20024;-65
2022/06/26 11:25:44;;;;;;;1.88;1.15;;;;;;;;;;5078065;28;20028;-61
2022/06/26 11:28:38;;;;;;;2.22;1.35;;;;;;;;;;5093128;28;20016;-62
2022/06/26 11:31:26;;;;;;;2.28;1.08;;;;;;;;;;5092889;28;20024;-65
2022/06/26 11:34:13;;;;;;;2.45;1.20;;;;;;;;;;5078059;28;20034;-64
2022/06/26 11:36:59;;;;;;;1.25;0.90;;;;;;;;;;5091243;28;20024;-65
2022/06/26 11:39:45;;;;;;;1.00;0.90;;;;;;;;;;5093118;28;20044;-64
2022/06/26 11:42:31;;;;;;;4.55;1.40;;;;;;;;;;5061459;28;20127;-65
2022/06/26 11:45:20;;;;;;;1.63;1.30;;;;;;;;;;5088711;28;20028;-63
2022/06/26 11:48:18;;;;;;;1.73;1.33;;;;;;;;;;5079766;28;20108;-64
2022/06/26 11:51:04;;;;;;;3.25;1.30;;;;;;;;;;5067708;28;20032;-67
2022/06/26 11:53:50;;;;;;;1.42;1.08;;;;;;;;;;5075405;28;20063;-63
2022/06/26 11:56:36;;;;;;;2.33;1.33;;;;;;;;;;5083307;28;20103;-63
2022/06/26 11:59:22;;;;;;;1.73;1.25;;;;;;;;;;5091692;28;20098;-62
2022/06/26 12:02:17;;;;;;;1.52;1.05;;;;;;;;;;5085107;28;21196;-62
2022/06/26 12:05:03;;;;;;;1.73;1.20;;;;;;;;;;5077684;28;20037;-62
2022/06/26 12:07:51;;;;;;;1.42;1.20;;;;;;;;;;5063399;28;20093;-64
2022/06/26 12:10:36;;;;;;;3.13;1.00;;;;;;;;;;5074919;28;20029;-65
2022/06/26 12:13:32;;;;;;;3.30;1.67;;;;;;;;;;5081893;28;20028;-65
2022/06/26 12:16:18;;;;;;;1.30;1.20;;;;;;;;;;5088519;28;20374;-65
2022/06/26 12:19:03;;;;;;;3.70;1.30;;;;;;;;;;5074197;28;20024;-66
2022/06/26 12:21:51;;;;;;;3.03;1.08;;;;;;;;;;5090649;28;20501;-66
2022/06/26 12:24:36;;;;;;;1.02;1.00;;;;;;;;;;5077340;28;20024;-66
2022/06/26 12:27:35;;;;;;;1.00;0.95;;;;;;;;;;5084359;28;20604;-65
2022/06/26 12:30:22;;;;;;;3.25;1.30;;;;;;;;;;5078613;28;20077;-66
2022/06/26 12:33:07;;;;;;;1.92;1.13;;;;;;;;;;5072980;28;20559;-65
2022/06/26 12:35:53;;;;;;;1.58;1.35;;;;;;;;;;5055702;28;20032;-66
2022/06/26 12:38:38;;;;;;;3.22;1.25;;;;;;;;;;5091984;28;20050;-65
2022/06/26 12:41:24;;;;;;;1.50;1.00;;;;;;;;;;5083275;28;20486;-66
2022/06/26 12:44:10;;;;;;;1.98;1.20;;;;;;;;;;5093152;28;20098;-66
2022/06/26 12:46:55;;;;;;;1.30;1.00;;;;;;;;;;5081624;28;20028;-67
2022/06/26 12:49:41;;;;;;;1.02;1.00;;;;;;;;;;5086989;28;20034;-65
2022/06/26 12:52:27;;;;;;;1.85;1.02;;;;;;;;;;5095997;28;20020;-65
2022/06/26 12:55:13;;;;;;;1.77;1.10;;;;;;;;;;5096706;28;20023;-65
2022/06/26 12:57:59;;;;;;;2.45;1.73;;;;;;;;;;5089772;28;20191;-65
2022/06/26 13:00:46;;;;;;;1.70;1.20;;;;;;;;;;5086964;28;20054;-66
2022/06/26 13:03:32;;;;;;;1.90;1.30;;;;;;;;;;5093740;28;20043;-65
2022/06/26 13:06:17;;;;;;;3.78;1.20;;;;;;;;;;5069528;28;20040;-70
2022/06/26 13:09:03;;;;;;;1.10;1.00;;;;;;;;;;5067911;28;20111;-71
2022/06/26 13:11:48;;;;;;;1.50;1.40;;;;;;;;;;5091695;28;20047;-70
2022/06/26 13:14:34;;;;;;;1.95;1.45;;;;;;;;;;5092405;28;20039;-70
2022/06/26 13:17:20;;;;;;;2.03;1.35;;;;;;;;;;5089385;28;20035;-69
2022/06/26 13:20:06;;;;;;;1.58;1.10;;;;;;;;;;5078874;28;20046;-69
2022/06/26 13:22:52;;;;;;;1.10;1.00;;;;;;;;;;5095638;28;20040;-70
2022/06/26 13:25:38;;;;;;;2.90;1.30;;;;;;;;;;5087187;28;20017;-66
2022/06/26 13:28:23;;;;;;;1.40;1.10;;;;;;;;;;5091586;28;20032;-65
2022/06/26 13:31:09;;;;;;;1.50;1.20;;;;;;;;;;5068020;28;20119;-64
2022/06/26 13:33:54;;;;;;;1.13;1.00;;;;;;;;;;5077299;28;20027;-65
2022/06/26 13:36:40;;;;;;;1.58;1.20;;;;;;;;;;5078060;28;20017;-66
2022/06/26 13:39:26;;;;;;;1.50;1.27;;;;;;;;;;5094559;28;20020;-71
2022/06/26 13:42:11;;;;;;;1.95;1.35;;;;;;;;;;5095005;28;20082;-65
2022/06/26 13:44:57;;;;;;;3.20;1.10;;;;;;;;;;5088738;28;20036;-65
2022/06/26 13:47:42;;;;;;;1.80;1.00;;;;;;;;;;5070297;28;20421;-65
2022/06/26 13:50:28;;;;;;;1.42;1.20;;;;;;;;;;5094778;28;20038;-67
2022/06/26 13:53:14;;;;;;;1.42;1.20;;;;;;;;;;5069554;28;20036;-67
2022/06/26 13:55:59;;;;;;;2.15;1.25;;;;;;;;;;5066232;28;20084;-66
2022/06/26 13:58:45;;;;;;;1.58;1.15;;;;;;;;;;5094350;28;20039;-64
2022/06/26 14:01:30;;;;;;;1.13;1.00;;;;;;;;;;5083609;28;20035;-66
2022/06/26 14:04:16;;;;;;;1.38;1.08;;;;;;;;;;5094129;28;20393;-66
2022/06/26 14:07:03;;;;;;;1.63;1.40;;;;;;;;;;5094766;28;20032;-66
2022/06/26 14:09:48;;;;;;;1.23;1.10;;;;;;;;;;5089935;28;20532;-65
2022/06/26 14:12:34;;;;;;;2.55;1.63;;;;;;;;;;5065433;28;20037;-67
2022/06/26 14:15:19;;;;;;;1.70;1.30;;;;;;;;;;5082637;28;20097;-65
2022/06/26 14:18:05;;;;;;;1.42;1.30;;;;;;;;;;5064242;28;20371;-65
2022/06/26 14:20:51;;;;;;;2.72;1.17;;;;;;;;;;5081105;28;20038;-66
2022/06/26 14:26:41;;;;;;;1.98;1.17;;;;;;;;;;5074665;28;20027;-66
2022/06/26 14:29:28;;;;;;;1.88;1.20;;;;;;;;;;5089326;28;20432;-66
2022/06/26 14:32:14;;;;;;;4.38;1.20;;;;;;;;;;5065661;28;20032;-65
2022/06/26 14:34:59;;;;;;;3.53;1.23;;;;;;;;;;5074027;28;20073;-66
2022/06/26 14:37:45;;;;;;;4.70;1.60;;;;;;;;;;5087734;28;20064;-64
2022/06/26 14:40:30;;;;;;;2.08;1.20;;;;;;;;;;5093965;28;20074;-70
2022/06/26 14:43:16;;;;;;;1.50;1.10;;;;;;;;;;5079318;28;20035;-69
2022/06/26 14:46:02;;;;;;;2.35;1.38;;;;;;;;;;5081908;28;20443;-69
2022/06/26 14:48:47;;;;;;;1.88;1.10;;;;;;;;;;5092612;28;20165;-69
2022/06/26 14:51:33;;;;;;;1.10;1.00;;;;;;;;;;5093920;28;20055;-69
2022/06/26 14:54:18;;;;;;;1.05;1.00;;;;;;;;;;5066127;28;20031;-63
2022/06/26 14:57:04;;;;;;;2.22;1.30;;;;;;;;;;5093349;28;20024;-64
2022/06/26 14:59:50;;;;;;;2.67;1.30;;;;;;;;;;5082448;28;20024;-69
2022/06/26 15:02:35;;;;;;;2.85;1.20;;;;;;;;;;5090500;28;20506;-65
2022/06/26 15:05:21;;;;;;;1.20;1.10;;;;;;;;;;5093681;28;20035;-66
2022/06/26 15:08:07;;;;;;;1.38;1.10;;;;;;;;;;5077496;28;20028;-67
2022/06/26 15:10:53;;;;;;;4.57;1.17;;;;;;;;;;5088493;28;20403;-66
2022/06/26 15:13:39;;;;;;;2.55;1.30;;;;;;;;;;5079714;28;20082;-63
2022/06/26 15:16:31;;;;;;;1.80;1.25;;;;;;;;;;5074380;28;20020;-65
2022/06/26 15:19:17;;;;;;;4.18;1.15;;;;;;;;;;5067359;28;20037;-65
2022/06/26 15:22:02;;;;;;;1.55;1.10;;;;;;;;;;5076528;28;20466;-67
2022/06/26 15:24:48;;;;;;;1.20;1.10;;;;;;;;;;5088580;28;20076;-64
2022/06/26 15:27:34;;;;;;;0.93;0.90;;;;;;;;;;5092600;28;20055;-65
2022/06/26 15:30:20;;;;;;;1.33;1.13;;;;;;;;;;5080343;28;20082;-64
2022/06/26 15:33:05;;;;;;;1.20;1.10;;;;;;;;;;5083299;28;20025;-66
2022/06/26 15:35:51;;;;;;;1.75;1.17;;;;;;;;;;5067344;28;20020;-67
2022/06/26 15:38:37;;;;;;;2.45;1.23;;;;;;;;;;5085531;28;20489;-66
2022/06/26 15:41:22;;;;;;;1.73;1.25;;;;;;;;;;5083515;28;20413;-67
2022/06/26 15:44:08;;;;;;;2.05;1.30;;;;;;;;;;5078395;28;20040;-67
2022/06/26 15:46:54;;;;;;;1.30;1.20;;;;;;;;;;5080617;28;20028;-67
2022/06/26 15:49:39;;;;;;;1.45;1.23;;;;;;;;;;5083659;28;20027;-62
2022/06/26 15:52:25;;;;;;;2.65;0.90;;;;;;;;;;5090750;28;20038;-67
2022/06/26 15:55:12;;;;;;;1.50;1.20;;;;;;;;;;5078591;28;20031;-66
2022/06/26 15:57:57;;;;;;;1.48;1.20;;;;;;;;;;5065213;28;20367;-65
2022/06/26 16:00:44;;;;;;;4.10;1.48;;;;;;;;;;5077947;28;20016;-65
2022/06/26 16:03:29;;;;;;;1.60;1.40;;;;;;;;;;5091560;28;20552;-65
2022/06/26 16:06:15;;;;;;;1.63;1.23;;;;;;;;;;5092581;28;20031;-66
2022/06/26 16:09:02;;;;;;;3.13;1.40;;;;;;;;;;5091101;28;20032;-64
2022/06/26 16:11:48;;;;;;;2.08;1.23;;;;;;;;;;5068895;28;20036;-66
2022/06/26 16:14:34;;;;;;;1.50;1.30;;;;;;;;;;5073496;28;20131;-66
2022/06/26 16:17:19;;;;;;;5.65;3.95;;;;;;;;;;5092613;28;20067;-65
2022/06/26 16:20:06;;;;;;;2.78;2.25;;;;;;;;;;5082770;28;20115;-66
2022/06/26 16:29:01;;;;;;;1.13;1.02;;;;;;;;;;5081164;28;20028;-67
2022/06/26 16:31:46;;;;;;;2.58;1.55;;;;;;;;;;5094561;28;20035;-66
2022/06/26 16:34:32;;;;;;;3.20;1.30;;;;;;;;;;5074928;28;20028;-65
2022/06/26 16:37:17;;;;;;;1.48;1.17;;;;;;;;;;5092538;28;20485;-67
2022/06/26 16:40:03;;;;;;;1.65;1.38;;;;;;;;;;5099128;28;20035;-67
2022/06/26 16:42:49;;;;;;;5.30;2.33;;;;;;;;;;5075253;28;20032;-66
2022/06/26 16:45:35;;;;;;;2.40;1.85;;;;;;;;;;5095429;28;20459;-61
2022/06/26 16:48:21;;;;;;;1.75;1.40;;;;;;;;;;5084205;28;20542;-69
2022/06/26 16:51:07;;;;;;;1.20;1.10;;;;;;;;;;5098314;28;20535;-68
2022/06/26 16:53:53;;;;;;;1.80;1.58;;;;;;;;;;5068549;28;20134;-66
2022/06/26 16:56:38;;;;;;;2.88;1.27;;;;;;;;;;5083936;28;20078;-67
2022/06/26 16:59:24;;;;;;;3.75;2.10;;;;;;;;;;5071631;28;20040;-68
2022/06/26 17:02:10;;;;;;;4.60;2.38;;;;;;;;;;5096029;28;20040;-66